Список аэропортов
Фактическая погода:

25 июня, 00:30
Температура: +14°C (+13.8*)
Ветер: западный 2 м/с
Давление: *761 мм
Без существ. явл.
Время (МСК)Темп. СВетерВлажностьДавлениеОблачностьОсадки
21:00+18ЮВ, 1 м/с84%1014 гПаясно
22:00+16ЮВ, 1 м/с88%1015 гПаясно
23:00+15ЮВ, 1 м/с93%1015 гПаясно
25 июня
00:00+14ЮВ, 1 м/с96%1015 гПамалооблачно
01:00+13Ю, 1 м/с98%1016 гПамалооблачно
02:00+12ЮВ, 1 м/с98%1016 гПамалооблачно
03:00+12ЮВ, 1 м/с98%1016 гПамалооблачно
04:00+13ЮВ, 1 м/с97%1016 гПамалооблачно
05:00+16Штиль 90%1016 гПаясно
06:00+20ЮЗ, 1 м/с74%1016 гПамалооблачно
07:00+24ЮЗ, 1 м/с56%1016 гПамалооблачно
08:00+27ЮЗ, 2 м/с46%1016 гПамалооблачно
09:00+29ЮЗ, 2 м/с43%1016 гПаоблачно
10:00+30З, 3 м/с43%1015 гПас прояснениямисл. дождь
11:00+32З, 3 м/с30%1015 гПамалооблачно
12:00+33З, 3 м/с26%1015 гПас прояснениями
13:00+33З, 3 м/с27%1014 гПаоблачно
14:00+33СЗ, 3 м/с28%1014 гПамалооблачно
15:00+33СЗ, 3 м/с27%1014 гПаясно
16:00+33СЗ, 3 м/с25%1014 гПаясно
17:00+33СЗ, 3 м/с24%1014 гПаясно
18:00+32СЗ, 2 м/с28%1014 гПаоблачно
19:00+28С, 1 м/с50%1014 гПаясно
20:00+24С, 1 м/с76%1014 гПаясно
21:00+21Штиль 87%1015 гПаясно
22:00+19ЮЗ, 1 м/с89%1015 гПаясно
23:00+17Штиль 93%1015 гПаясно
26 июня
00:00+16Штиль 96%1015 гПамалооблачно
01:00+15Штиль 98%1015 гПамалооблачно
02:00+14С, 1 м/с99%1016 гПамалооблачно
03:00+14СВ, 1 м/с99%1016 гПамалооблачно
04:00+15СВ, 1 м/с99%1017 гПамалооблачно
05:00+17Штиль 95%1017 гПаясно
06:00+20В, 1 м/с83%1017 гПамалооблачно
07:00+25СВ, 1 м/с62%1017 гПамалооблачно
08:00+27СВ, 2 м/с49%1017 гПаясно
09:00+29СВ, 2 м/с40%1017 гПаясно
10:00+31СВ, 1 м/с33%1017 гПаясно
11:00+32С, 2 м/с28%1016 гПаясно
12:00+33С, 2 м/с26%1016 гПаясно
13:00+33С, 2 м/с25%1015 гПаясно
14:00+33С, 2 м/с24%1015 гПаясно
15:00+33СВ, 2 м/с24%1015 гПаясно
16:00+33СВ, 2 м/с25%1014 гПаясно
17:00+32СВ, 1 м/с26%1014 гПаясно
18:00+31СВ, 1 м/с29%1014 гПаясно
19:00+28В, 1 м/с62%1014 гПаясно
20:00+24ЮВ, 1 м/с68%1014 гПаясно
21:00+21Ю, 1 м/с78%1015 гПаясно